Vihari Weather



Vihari's Current Weather

Temprature 30.85o clear sky

clear sky

Rain: 0 %

Min Temprature30.85o
Max Temprature30.85o
Humidity33
Wind Speed3.73 m/h
Sun Rise05:42:22
Sun Set18:44:49
Current Time: 23-Aug-2019 06:03:23
Lat/Lon: 30.03, 72.35




Vihari's Geo Location



Vihari's Weather Forecast

Time Overall Temp Min Temp Max Temp Humidity Wind Speed Rain
23-Aug-2019 (Fri)
08:00:00 clear sky 35.460 35.457 35.460 28 5.82 m/h 0 %
11:00:00 clear sky 41.050 41.050 41.050 22 6.02 m/h 0 %
14:00:00 clear sky 43.430 43.430 43.431 16 4.01 m/h 0 %
17:00:00 scattered clouds 42.110 42.110 42.111 17 3.35 m/h 0 %
20:00:00 broken clouds 36.550 36.550 36.550 24 4.86 m/h 0 %
23:00:00 scattered clouds 34.542 34.542 34.542 26 4.46 m/h 0 %
24-Aug-2019 (Sat)
02:00:00 clear sky 33.431 33.431 33.431 30 5.58 m/h 0 %
05:00:00 clear sky 32.655 32.655 32.655 31 6.29 m/h 0 %
08:00:00 clear sky 35.347 35.347 35.347 34 8.1 m/h 0 %
11:00:00 clear sky 40.769 40.769 40.769 23 7.91 m/h 0 %
14:00:00 clear sky 44.069 44.069 44.069 16 6.32 m/h 0 %
17:00:00 few clouds 42.523 42.523 42.523 17 5.56 m/h 0 %
20:00:00 scattered clouds 36.650 36.650 36.650 23 5.07 m/h 0 %
23:00:00 few clouds 34.769 34.769 34.769 26 5.01 m/h 0 %
25-Aug-2019 (Sun)
02:00:00 clear sky 33.631 33.631 33.631 28 5.9 m/h 0 %
05:00:00 clear sky 31.957 31.957 31.957 29 5.49 m/h 0 %
08:00:00 clear sky 35.014 35.014 35.014 34 7.71 m/h 0 %
11:00:00 clear sky 41.116 41.116 41.116 23 7.96 m/h 0 %
14:00:00 clear sky 44.750 44.750 44.750 15 5.21 m/h 0 %
17:00:00 few clouds 42.250 42.250 42.250 16 4.06 m/h 0 %
20:00:00 broken clouds 37.081 37.081 37.081 23 5.29 m/h 0 %
23:00:00 scattered clouds 35.111 35.111 35.111 27 4.52 m/h 0 %
26-Aug-2019 (Mon)
02:00:00 scattered clouds 33.465 33.465 33.465 31 5.05 m/h 0 %
05:00:00 scattered clouds 31.150 31.150 31.150 36 3.85 m/h 0 %
08:00:00 clear sky 35.767 35.767 35.767 31 5.83 m/h 0 %
11:00:00 clear sky 42.572 42.572 42.572 19 3.35 m/h 0 %
14:00:00 overcast clouds 46.684 46.684 46.684 12 0.34 m/h 0 %
17:00:00 overcast clouds 42.120 42.120 42.120 17 4.97 m/h 0 %
20:00:00 overcast clouds 37.072 37.072 37.072 23 1.77 m/h 0 %
23:00:00 broken clouds 34.514 34.514 34.514 35 4.29 m/h 0 %
27-Aug-2019 (Tue)
02:00:00 scattered clouds 34.716 34.716 34.716 38 5.67 m/h 0 %
05:00:00 broken clouds 32.950 32.950 32.950 46 4.5 m/h 0 %
08:00:00 overcast clouds 36.435 36.435 36.435 40 6 m/h 0 %
11:00:00 overcast clouds 41.736 41.736 41.736 25 4.74 m/h 0 %
14:00:00 scattered clouds 41.736 41.736 41.736 23 5.22 m/h 0 %
17:00:00 scattered clouds 42.265 42.265 42.265 23 5.14 m/h 0 %
20:00:00 scattered clouds 36.050 36.050 36.050 35 3.93 m/h 0 %
23:00:00 scattered clouds 34.450 34.450 34.450 40 3.16 m/h 0 %
28-Aug-2019 (Wed)
02:00:00 clear sky 33.257 33.257 33.257 45 2.25 m/h 0 %
05:00:00 light rain 31.472 31.472 31.472 51 1.19 m/h 31 %

Famous Cities (61)